Time,TemperatureF,DewpointF,PressureIn,WindDirection,WindDirectionDegrees,WindSpeedMPH,WindSpeedGustMPH,Humidity,HourlyPrecipIn,Conditions,Clouds,dailyrainin,SoftwareType,DateUTC
2016-02-08 00:00:00,22.9,20.9,29.88,North,5,5.0,5.0,92,0.00,,,0.00,Wunderground v.1.15,2016-02-08 06:00:00,
2016-02-08 00:10:00,22.6,20.4,29.89,NW,319,7.0,7.0,91,0.00,,,0.00,Wunderground v.1.15,2016-02-08 06:10:00,
2016-02-08 00:21:00,20.8,18.6,29.89,NW,309,7.0,7.0,91,0.00,,,0.00,Wunderground v.1.15,2016-02-08 06:21:00,
2016-02-08 00:30:00,20.5,18.5,29.89,NE,44,6.0,6.0,92,0.00,,,0.00,Wunderground v.1.15,2016-02-08 06:30:00,
2016-02-08 00:41:00,20.5,18.3,29.90,NW,326,7.0,7.0,91,0.00,,,0.00,Wunderground v.1.15,2016-02-08 06:41:00,
2016-02-08 00:50:00,20.5,18.3,29.90,NW,320,5.0,5.0,91,0.00,,,0.00,Wunderground v.1.15,2016-02-08 06:50:00,
2016-02-08 01:00:00,20.6,18.6,29.89,WNW,302,5.0,8.0,92,0.00,,,0.00,Wunderground v.1.15,2016-02-08 07:00:00,
2016-02-08 01:11:00,20.4,18.2,29.89,NNW,329,7.0,8.0,91,0.00,,,0.00,Wunderground v.1.15,2016-02-08 07:11:00,
2016-02-08 01:20:00,19.9,17.7,29.89,NW,325,8.0,8.0,91,0.00,,,0.00,Wunderground v.1.15,2016-02-08 07:20:00,
2016-02-08 01:31:00,19.4,17.2,29.89,NW,323,8.0,8.0,91,0.00,,,0.00,Wunderground v.1.15,2016-02-08 07:31:00,
2016-02-08 01:40:00,19.3,17.4,29.88,North,9,9.0,9.0,92,0.00,,,0.00,Wunderground v.1.15,2016-02-08 07:40:00,
2016-02-08 01:50:00,19.3,17.1,29.89,NW,321,9.0,12.0,91,0.00,,,0.00,Wunderground v.1.15,2016-02-08 07:50:00,
2016-02-08 02:00:00,18.9,16.5,29.89,WNW,297,9.0,11.0,90,0.00,,,0.00,Wunderground v.1.15,2016-02-08 08:00:00,
2016-02-08 02:20:00,18.1,15.1,29.89,NNW,344,10.0,11.0,88,0.00,,,0.00,Wunderground v.1.15,2016-02-08 08:20:00,
2016-02-08 02:31:00,17.5,15.1,29.88,NNE,12,8.0,8.0,90,0.00,,,0.00,Wunderground v.1.15,2016-02-08 08:31:00,
2016-02-08 02:40:00,17.6,15.4,29.89,North,355,9.0,11.0,91,0.00,,,0.00,Wunderground v.1.15,2016-02-08 08:40:00,
2016-02-08 02:51:00,17.1,14.9,29.89,NNW,338,10.0,15.0,91,0.00,,,0.00,Wunderground v.1.15,2016-02-08 08:51:00,
2016-02-08 03:00:00,16.1,13.7,29.89,North,355,11.0,11.0,90,0.00,,,0.00,Wunderground v.1.15,2016-02-08 09:00:00,
2016-02-08 03:10:00,15.8,13.6,29.89,NW,323,11.0,12.0,91,0.00,,,0.00,Wunderground v.1.15,2016-02-08 09:10:00,
2016-02-08 03:21:00,15.7,13.5,29.89,West,273,10.0,13.0,91,0.00,,,0.00,Wunderground v.1.15,2016-02-08 09:21:00,
2016-02-08 03:30:00,15.7,13.5,29.90,NW,317,10.0,10.0,91,0.00,,,0.00,Wunderground v.1.15,2016-02-08 09:30:00,
2016-02-08 03:41:00,15.3,13.1,29.90,North,10,10.0,13.0,91,0.00,,,0.00,Wunderground v.1.15,2016-02-08 09:41:00,
2016-02-08 03:50:00,15.2,13.3,29.90,North,350,8.0,9.0,92,0.00,,,0.00,Wunderground v.1.15,2016-02-08 09:50:00,
2016-02-08 04:00:00,15.0,12.8,29.91,NNW,328,12.0,12.0,91,0.00,,,0.00,Wunderground v.1.15,2016-02-08 10:00:00,
2016-02-08 04:11:00,14.6,12.5,29.91,North,5,12.0,12.0,91,0.00,,,0.00,Wunderground v.1.15,2016-02-08 10:11:00,
2016-02-08 04:20:00,14.6,12.5,29.91,NNW,330,9.0,12.0,91,0.00,,,0.00,Wunderground v.1.15,2016-02-08 10:20:00,
2016-02-08 04:30:00,14.6,12.5,29.92,NW,308,8.0,8.0,91,0.00,,,0.00,Wunderground v.1.15,2016-02-08 10:30:00,
2016-02-08 04:41:00,14.4,12.3,29.92,North,360,9.0,16.0,91,0.00,,,0.00,Wunderground v.1.15,2016-02-08 10:41:00,
2016-02-08 04:50:00,14.3,12.2,29.92,North,350,9.0,9.0,91,0.00,,,0.00,Wunderground v.1.15,2016-02-08 10:50:00,
2016-02-08 05:00:00,14.4,12.5,29.92,NNE,16,10.0,10.0,92,0.00,,,0.00,Wunderground v.1.15,2016-02-08 11:00:00,
2016-02-08 05:11:00,14.4,12.3,29.92,NNE,28,10.0,10.0,91,0.00,,,0.00,Wunderground v.1.15,2016-02-08 11:11:00,
2016-02-08 05:20:00,14.5,12.4,29.93,NW,311,10.0,10.0,91,0.00,,,0.00,Wunderground v.1.15,2016-02-08 11:20:00,
2016-02-08 05:30:00,14.5,12.4,29.93,NNW,332,8.0,15.0,91,0.00,,,0.00,Wunderground v.1.15,2016-02-08 11:30:00,
2016-02-08 05:41:00,14.5,12.4,29.93,NW,324,11.0,19.0,91,0.00,,,0.00,Wunderground v.1.15,2016-02-08 11:41:00,
2016-02-08 05:50:00,14.3,11.9,29.93,NW,313,11.0,11.0,90,0.00,,,0.00,Wunderground v.1.15,2016-02-08 11:50:00,
2016-02-08 06:00:00,14.4,12.0,29.93,NW,313,10.0,10.0,90,0.00,,,0.00,Wunderground v.1.15,2016-02-08 12:00:00,
2016-02-08 06:10:00,14.3,11.9,29.93,North,10,11.0,11.0,90,0.00,,,0.00,Wunderground v.1.15,2016-02-08 12:10:00,
2016-02-08 06:21:00,14.2,11.8,29.94,NNW,331,11.0,11.0,90,0.00,,,0.00,Wunderground v.1.15,2016-02-08 12:21:00,
2016-02-08 06:40:00,14.4,12.0,29.95,NNW,347,11.0,20.0,90,0.00,,,0.00,Wunderground v.1.15,2016-02-08 12:40:00,
2016-02-08 06:51:00,14.5,11.9,29.94,NW,309,10.0,10.0,89,0.00,,,0.00,Wunderground v.1.15,2016-02-08 12:51:00,
2016-02-08 07:01:00,14.5,11.9,29.95,North,355,9.0,9.0,89,0.00,,,0.00,Wunderground v.1.15,2016-02-08 13:01:00,
2016-02-08 07:10:00,14.3,11.9,29.95,WNW,302,9.0,9.0,90,0.00,,,0.00,Wunderground v.1.15,2016-02-08 13:10:00,